.
WxDataArchive / Data Records for 2016-06-04
2016-06-03 June 2016 2016-06-05

Data Records for Saturday, 04 June 2016

Time	Temp	Chill	HIndex	Humid	Dewpt	 Wind 	HiWind	WindDir	Rain 	Barom
-----	----	-----	------	-----	-----	------	------	-------	-----	-----
00:00	66.0	66.0	66.0	64	53.5	0	0	---	0.00	29.955 
00:05	65.8	65.8	65.8	65	53.7	0	0	---	0.00	29.955 
00:10	65.8	65.8	65.8	65	53.7	0	0	---	0.00	29.955 
00:15	65.6	65.6	65.6	66	53.9	0	0	---	0.00	29.955 
00:20	65.6	65.6	65.6	66	53.9	0	0	---	0.00	29.955 
00:25	65.5	65.5	65.5	66	53.8	0	0	---	0.00	29.955 
00:30	65.3	65.3	65.3	66	53.6	0	0	---	0.00	29.957 
00:35	65.3	65.3	65.3	68	54.5	0	0	---	0.00	29.957 
00:40	65.2	65.2	65.2	68	54.4	0	0	---	0.00	29.957 
00:45	65.2	65.2	65.2	69	54.8	0	0	---	0.00	29.955 
00:50	65.0	65.0	65.0	69	54.6	0	0	---	0.00	29.955 
00:55	64.8	64.8	64.8	69	54.4	0	0	---	0.00	29.955 
01:00	64.8	64.8	64.8	70	54.8	0	0	---	0.00	29.956 
01:05	64.7	64.7	64.7	70	54.7	0	0	---	0.00	29.956 
01:10	64.5	64.5	64.5	70	54.5	0	0	---	0.00	29.956 
01:15	64.3	64.3	64.3	71	54.7	0	0	---	0.00	29.951 
01:20	64.2	64.2	64.2	72	55.0	0	0	---	0.00	29.951 
01:25	64.2	64.2	64.2	72	55.0	0	0	---	0.00	29.951 
01:30	64.0	64.0	64.0	72	54.8	0	0	---	0.00	29.945 
01:35	63.9	63.9	63.9	73	55.1	0	0	---	0.00	29.945 
01:40	63.9	63.9	63.9	73	55.1	0	0	---	0.00	29.945 
01:45	63.7	63.7	63.7	73	54.9	0	0	---	0.00	29.943 
01:50	63.7	63.7	63.7	74	55.3	0	0	---	0.00	29.943 
01:55	63.7	63.7	63.7	74	55.3	0	0	---	0.00	29.943 
02:00	63.5	63.5	63.5	74	55.1	0	0	---	0.00	29.942 
02:05	63.5	63.5	63.5	74	55.1	0	0	---	0.00	29.942 
02:10	63.5	63.5	63.5	74	55.1	0	0	---	0.00	29.942 
02:15	63.4	63.4	63.4	74	55.0	0	0	---	0.00	29.939 
02:20	63.4	63.4	63.4	75	55.3	0	0	---	0.00	29.939 
02:25	63.4	63.4	63.4	75	55.3	0	0	---	0.00	29.939 
02:30	63.2	63.2	63.2	75	55.1	0	0	---	0.00	29.937 
02:35	63.2	63.2	63.2	75	55.1	0	0	---	0.00	29.937 
02:40	63.1	63.1	63.1	75	55.0	0	0	---	0.00	29.937 
02:45	63.1	63.1	63.1	75	55.0	0	0	---	0.00	29.936 
02:50	63.1	63.1	63.1	76	55.4	0	0	---	0.00	29.936 
02:55	63.1	63.1	63.1	77	55.8	0	0	---	0.00	29.936 
03:00	63.1	63.1	63.1	77	55.8	0	0	---	0.00	29.932 
03:05	62.9	62.9	62.9	78	55.9	0	0	---	0.00	29.932 
03:10	62.9	62.9	62.9	77	55.6	0	0	---	0.00	29.932 
03:15	62.9	62.9	62.9	77	55.6	0	0	---	0.00	29.925 
03:20	62.7	62.7	62.7	77	55.4	0	0	---	0.00	29.925 
03:25	62.7	62.7	62.7	77	55.4	0	0	---	0.00	29.925 
03:30	62.7	62.7	62.7	77	55.4	0	0	---	0.00	29.922 
03:35	62.6	62.6	62.6	74	54.2	0	0	---	0.00	29.922 
03:40	62.6	62.6	62.6	73	53.8	0	0	---	0.00	29.922 
03:45	62.6	62.6	62.6	73	53.8	0	0	---	0.00	29.921 
03:50	62.7	62.7	62.7	74	54.3	0	0	---	0.00	29.921 
03:55	62.7	62.7	62.7	74	54.3	0	0	---	0.00	29.921 
04:00	62.7	62.7	62.7	74	54.3	0	0	---	0.00	29.919 
04:05	62.7	62.7	62.7	73	53.9	0	0	---	0.00	29.919 
04:10	62.6	62.6	62.6	71	53.1	0	0	---	0.00	29.919 
04:15	62.7	62.7	62.7	71	53.2	0	0	---	0.00	29.914 
04:20	62.7	62.7	62.7	71	53.2	0	0	---	0.00	29.914 
04:25	62.9	62.9	62.9	72	53.7	0	0	---	0.00	29.914 
04:30	62.9	62.9	62.9	72	53.7	0	0	---	0.00	29.911 
04:35	62.7	62.7	62.7	71	53.2	0	0	---	0.00	29.911 
04:40	62.7	62.7	62.7	70	52.8	0	0	---	0.00	29.911 
04:45	62.7	62.7	62.7	70	52.8	0	0	---	0.00	29.910 
04:50	62.9	62.9	62.9	70	53.0	0	0	---	0.00	29.910 
04:55	62.9	62.9	62.9	70	53.0	0	0	---	0.00	29.910 
05:00	62.9	62.9	62.9	70	53.0	0	0	---	0.00	29.906 
05:05	63.1	63.1	63.1	70	53.2	0	0	---	0.00	29.906 
05:10	63.1	63.1	63.1	70	53.2	0	0	---	0.00	29.906 
05:15	63.2	63.2	63.2	70	53.2	0	0	---	0.00	29.905 
05:20	63.2	63.2	63.2	70	53.2	0	0	---	0.00	29.905 
05:25	63.2	63.2	63.2	69	52.9	0	0	---	0.00	29.905 
05:30	63.4	63.4	63.4	70	53.4	0	0	---	0.00	29.907 
05:35	63.5	63.5	63.5	70	53.5	0	0	---	0.00	29.907 
05:40	63.5	63.5	63.5	70	53.5	0	0	---	0.00	29.907 
05:45	63.5	63.5	63.5	71	53.9	0	0	---	0.00	29.914 
05:50	63.5	63.5	63.5	71	53.9	0	0	---	0.00	29.914 
05:55	63.5	63.5	63.5	71	53.9	0	0	---	0.00	29.914 
06:00	63.5	63.5	63.5	72	54.3	0	0	---	0.00	29.918 
06:05	63.5	63.5	63.5	72	54.3	0	0	---	0.00	29.918 
06:10	63.4	63.4	63.4	70	53.4	0	0	---	0.00	29.918 
06:15	63.5	63.5	63.5	72	54.3	0	0	---	0.00	29.915 
06:20	63.5	63.5	63.5	71	53.9	0	0	---	0.00	29.915 
06:25	63.5	63.5	63.5	71	53.9	0	0	---	0.00	29.915 
06:30	63.7	63.7	63.7	70	53.7	0	0	---	0.00	29.914 
06:35	64.0	64.0	64.0	70	54.0	0	0	---	0.00	29.914 
06:40	64.3	64.3	64.3	71	54.7	0	0	---	0.00	29.914 
06:45	64.8	64.8	64.8	71	55.2	0	0	---	0.00	29.910 
06:50	65.5	65.5	65.5	71	55.8	0	0	---	0.00	29.910 
06:55	66.1	66.1	66.1	71	56.4	0	0	---	0.00	29.910 
07:00	66.8	66.8	66.8	71	57.1	0	2	22	0.00	29.905 
07:05	67.3	67.3	67.3	71	57.6	0	0	---	0.00	29.905 
07:10	67.4	67.4	67.4	71	57.7	0	0	---	0.00	29.905 
07:15	67.6	67.6	67.6	71	57.9	0	0	---	0.00	29.906 
07:20	67.8	67.8	67.8	71	58.0	0	0	---	0.00	29.906 
07:25	67.8	67.8	67.8	71	58.0	0	0	---	0.00	29.906 
07:30	67.8	67.8	67.8	71	58.0	0	0	---	0.00	29.904 
07:35	67.8	67.8	67.8	70	57.6	0	1	338	0.00	29.904 
07:40	67.9	67.9	67.9	70	57.7	0	0	---	0.00	29.904 
07:45	67.9	67.9	67.9	70	57.7	0	1	338	0.00	29.905 
07:50	68.1	68.1	68.1	70	57.9	0	0	---	0.00	29.905 
07:55	68.3	68.3	68.3	70	58.1	0	0	---	0.00	29.905 
08:00	68.4	68.4	68.4	69	57.8	0	1	338	0.00	29.906 
08:05	68.9	68.9	68.9	68	57.9	0	1	338	0.00	29.906 
08:10	69.4	69.4	69.4	66	57.5	0	1	45	0.00	29.906 
08:15	69.8	69.8	69.8	65	57.5	0	1	45	0.00	29.907 
08:20	69.9	69.9	69.9	64	57.2	0	1	45	0.00	29.907 
08:25	69.9	69.9	69.9	64	57.2	0	2	45	0.00	29.907 
08:30	70.1	70.1	70.1	64	57.3	0	2	338	0.00	29.904 
08:35	70.4	70.4	70.4	65	58.1	0	3	0	0.00	29.904 
08:40	70.8	70.8	70.8	64	58.0	0	3	68	0.00	29.904 
08:45	70.9	70.9	70.9	64	58.1	0	1	248	0.00	29.902 
08:50	70.9	70.9	70.9	65	58.5	0	0	---	0.00	29.902 
08:55	71.1	71.1	71.1	66	59.2	0	1	248	0.00	29.902 
09:00	71.1	71.1	71.1	66	59.2	0	2	248	0.00	29.903 
09:05	70.9	70.9	70.9	65	58.5	0	3	248	0.00	29.903 
09:10	70.8	70.8	70.8	65	58.4	0	1	248	0.00	29.903 
09:15	70.8	70.8	70.8	66	58.9	0	1	248	0.00	29.907 
09:20	70.8	70.8	70.8	67	59.3	0	1	248	0.00	29.907 
09:25	71.1	71.1	71.1	66	59.2	0	1	248	0.00	29.907 
09:30	71.8	71.8	71.8	66	59.8	0	1	248	0.00	29.903 
09:35	72.8	72.8	72.8	60	58.1	0	2	248	0.00	29.903 
09:40	73.5	73.5	73.5	59	58.3	0	3	248	0.00	29.903 
09:45	73.7	73.7	73.7	59	58.5	0	2	248	0.00	29.895 
09:50	73.5	73.5	73.5	59	58.3	0	1	248	0.00	29.895 
09:55	73.3	73.3	73.3	59	58.1	0	1	248	0.00	29.895 
10:00	73.5	73.5	73.5	60	58.7	0	1	248	0.00	29.887 
10:05	73.9	73.9	73.9	59	58.7	1	3	248	0.00	29.887 
10:10	73.9	73.9	73.9	59	58.7	1	3	90	0.00	29.887 
10:15	73.7	73.7	73.7	61	59.4	0	2	112	0.00	29.884 
10:20	74.0	74.0	74.0	60	59.2	0	2	112	0.00	29.884 
10:25	74.0	74.0	74.0	61	59.7	1	3	112	0.00	29.884 
10:30	74.0	74.0	74.0	60	59.2	0	2	315	0.00	29.874 
10:35	73.9	73.9	73.9	60	59.1	1	3	90	0.00	29.874 
10:40	73.7	73.7	73.7	61	59.4	0	2	90	0.00	29.874 
10:45	73.7	73.7	73.7	61	59.4	0	3	90	0.00	29.871 
10:50	74.0	74.0	74.0	61	59.7	1	3	90	0.00	29.871 
10:55	74.4	74.4	74.4	61	60.1	1	3	112	0.00	29.871 
11:00	74.4	74.4	74.4	60	59.6	0	4	248	0.00	29.871 
11:05	74.2	74.2	74.2	61	59.9	0	2	248	0.00	29.871 
11:10	74.0	74.0	74.0	61	59.7	1	4	135	0.00	29.871 
11:15	73.5	73.5	73.5	63	60.1	0	3	135	0.00	29.871 
11:20	73.5	73.5	73.5	64	60.6	0	1	135	0.00	29.871 
11:25	73.7	73.7	73.7	64	60.7	0	2	68	0.00	29.871 
11:30	74.0	74.0	74.0	63	60.6	0	2	68	0.00	29.862 
11:35	74.2	74.2	74.2	62	60.3	0	2	68	0.00	29.862 
11:40	74.4	74.4	74.4	62	60.5	1	4	90	0.00	29.862 
11:45	74.6	74.6	74.6	61	60.2	0	3	90	0.00	29.860 
11:50	74.6	74.6	74.6	62	60.7	1	3	135	0.00	29.860 
11:55	74.6	74.6	74.6	61	60.2	1	3	248	0.00	29.860 
12:00	74.4	74.4	74.4	61	60.1	0	2	158	0.00	29.859 
12:05	74.0	74.0	74.0	62	60.1	0	2	45	0.00	29.859 
12:10	73.7	73.7	73.7	63	60.3	1	3	68	0.00	29.859 
12:15	73.3	73.3	73.3	64	60.4	1	5	90	0.00	29.856 
12:20	73.3	73.3	73.3	64	60.4	0	2	90	0.00	29.856 
12:25	73.3	73.3	73.3	64	60.4	0	2	90	0.00	29.856 
12:30	73.5	73.5	73.5	65	61.0	0	3	90	0.00	29.856 
12:35	73.7	73.7	73.7	65	61.2	0	3	90	0.00	29.856 
12:40	73.9	73.9	73.9	65	61.4	0	2	90	0.00	29.856 
12:45	73.9	73.9	73.9	63	60.5	0	2	112	0.00	29.849 
12:50	73.7	73.7	73.7	62	59.9	0	3	112	0.00	29.849 
12:55	73.9	73.9	73.9	63	60.5	0	3	90	0.00	29.849 
13:00	73.9	73.9	73.9	62	60.0	1	2	68	0.00	29.846 
13:05	73.9	73.9	73.9	63	60.5	1	4	90	0.00	29.846 
13:10	73.9	73.9	73.9	63	60.5	0	3	90	0.00	29.846 
13:15	73.7	73.7	73.7	64	60.7	0	3	90	0.00	29.841 
13:20	73.5	73.5	73.5	65	61.0	0	2	90	0.00	29.841 
13:25	73.2	73.2	73.2	66	61.1	0	1	90	0.00	29.841 
13:30	72.8	72.8	72.8	68	61.6	0	1	90	0.00	29.842 
13:35	72.3	72.3	72.3	71	62.4	0	2	90	0.00	29.842 
13:40	72.0	72.0	72.0	73	62.9	0	2	22	0.00	29.842 
13:45	71.6	71.6	71.6	74	62.9	0	1	22	0.00	29.838 
13:50	71.3	71.3	71.3	75	63.0	0	0	---	0.00	29.838 
13:55	70.8	70.8	70.8	76	62.8	0	1	22	0.01	29.838 
14:00	70.4	70.4	70.4	77	62.8	0	0	---	0.00	29.834 
14:05	70.3	70.3	70.3	80	63.8	0	0	---	0.01	29.834 
14:10	69.9	69.9	69.9	81	63.8	0	1	22	0.00	29.834 
14:15	69.6	69.6	69.6	82	63.9	0	1	22	0.02	29.835 
14:20	69.1	69.1	69.1	83	63.7	0	0	---	0.00	29.835 
14:25	68.9	68.9	68.9	84	63.9	0	0	---	0.02	29.835 
14:30	68.8	68.8	68.8	85	64.1	0	0	---	0.01	29.823 
14:35	68.8	68.8	68.8	86	64.4	0	0	---	0.01	29.823 
14:40	68.6	68.6	68.6	87	64.6	0	1	22	0.03	29.823 
14:45	68.4	68.4	68.4	88	64.7	0	0	---	0.01	29.817 
14:50	68.4	68.4	68.4	88	64.7	0	0	---	0.00	29.817 
14:55	68.4	68.4	68.4	88	64.7	0	0	---	0.01	29.817 
15:00	68.3	68.3	68.3	88	64.6	0	0	---	0.00	29.804 
15:05	68.1	68.1	68.1	89	64.7	0	0	---	0.02	29.804 
15:10	67.9	67.9	67.9	89	64.5	0	0	---	0.02	29.804 
15:15	67.8	67.8	67.8	89	64.4	0	0	---	0.02	29.800 
15:20	67.6	67.6	67.6	89	64.2	0	0	---	0.05	29.800 
15:25	67.4	67.4	67.4	89	64.0	0	0	---	0.04	29.800 
15:30	67.4	67.4	67.4	90	64.4	0	0	---	0.04	29.791 
15:35	67.4	67.4	67.4	90	64.4	0	0	---	0.06	29.791 
15:40	67.3	67.3	67.3	91	64.6	0	0	---	0.07	29.791 
15:45	67.1	67.1	67.1	91	64.4	0	0	---	0.11	29.793 
15:50	67.1	67.1	67.1	91	64.4	0	0	---	0.11	29.793 
15:55	67.1	67.1	67.1	91	64.4	0	0	---	0.04	29.793 
16:00	66.8	66.8	66.8	92	64.4	0	0	---	0.02	29.777 
16:05	66.8	66.8	66.8	92	64.4	0	1	22	0.03	29.777 
16:10	66.6	66.6	66.6	92	64.2	0	0	---	0.02	29.777 
16:15	66.6	66.6	66.6	92	64.2	0	1	22	0.01	29.762 
16:20	66.4	66.4	66.4	92	64.0	0	0	---	0.01	29.762 
16:25	66.3	66.3	66.3	93	64.2	0	1	22	0.01	29.762 
16:30	66.3	66.3	66.3	93	64.2	0	1	22	0.03	29.754 
16:35	66.3	66.3	66.3	93	64.2	0	1	22	0.01	29.754 
16:40	66.3	66.3	66.3	93	64.2	0	0	---	0.00	29.754 
16:45	66.3	66.3	66.3	93	64.2	0	1	22	0.00	29.743 
16:50	66.4	66.4	66.4	93	64.3	1	4	90	0.00	29.743 
16:55	66.3	66.3	66.3	93	64.2	1	4	90	0.01	29.743 
17:00	66.1	66.1	66.1	94	64.3	0	2	90	0.03	29.734 
17:05	66.1	66.1	66.1	94	64.3	0	2	90	0.05	29.734 
17:10	66.1	66.1	66.1	94	64.3	0	1	90	0.02	29.734 
17:15	66.1	66.1	66.1	94	64.3	0	1	90	0.00	29.723 
17:20	66.3	66.3	66.3	94	64.5	0	1	90	0.01	29.723 
17:25	66.4	66.4	66.4	94	64.6	1	4	90	0.00	29.723 
17:30	66.1	66.1	66.1	94	64.3	2	5	292	0.07	29.727 
17:35	65.8	65.8	65.8	94	64.0	1	5	292	0.02	29.727 
17:40	65.6	65.6	65.6	94	63.8	0	1	292	0.01	29.727 
17:45	65.6	65.6	65.6	95	64.1	0	1	292	0.01	29.722 
17:50	65.5	65.5	65.5	95	64.0	0	1	292	0.02	29.722 
17:55	65.5	65.5	65.5	95	64.0	0	0	---	0.02	29.722 
18:00	65.5	65.5	65.5	95	64.0	0	0	---	0.02	29.722 
18:05	65.5	65.5	65.5	95	64.0	0	0	---	0.01	29.722 
18:10	65.5	65.5	65.5	95	64.0	0	0	---	0.02	29.722 
18:15	65.5	65.5	65.5	95	64.0	0	1	292	0.00	29.722 
18:20	65.5	65.5	65.5	95	64.0	0	0	---	0.01	29.722 
18:25	65.5	65.5	65.5	95	64.0	0	0	---	0.01	29.722 
18:30	65.5	65.5	65.5	95	64.0	0	1	292	0.01	29.722 
18:35	65.5	65.5	65.5	95	64.0	0	0	---	0.01	29.722 
18:40	65.5	65.5	65.5	95	64.0	0	0	---	0.00	29.722 
18:45	65.5	65.5	65.5	95	64.0	0	0	---	0.01	29.713 
18:50	65.5	65.5	65.5	95	64.0	0	0	---	0.00	29.713 
18:55	65.5	65.5	65.5	95	64.0	0	1	292	0.00	29.713 
19:00	65.5	65.5	65.5	95	64.0	0	0	---	0.01	29.694 
19:05	65.5	65.5	65.5	95	64.0	0	1	292	0.01	29.694 
19:10	65.5	65.5	65.5	95	64.0	0	0	---	0.00	29.694 
19:15	65.5	65.5	65.5	95	64.0	0	0	---	0.01	29.680 
19:20	65.6	65.6	65.6	95	64.1	0	0	---	0.00	29.680 
19:25	65.8	65.8	65.8	96	64.6	0	1	292	0.00	29.680 
19:30	65.8	65.8	65.8	96	64.6	0	1	292	0.00	29.687 
19:35	65.8	65.8	65.8	96	64.6	0	0	---	0.00	29.687 
19:40	65.8	65.8	65.8	96	64.6	0	0	---	0.00	29.687 
19:45	66.0	66.0	66.0	96	64.8	0	1	292	0.00	29.714 
19:50	66.0	66.0	66.0	96	64.8	0	1	292	0.00	29.714 
19:55	65.8	65.8	65.8	96	64.6	0	1	292	0.00	29.714 
20:00	65.8	65.8	65.8	96	64.6	0	1	292	0.00	29.719 
20:05	65.6	65.6	65.6	96	64.4	0	1	292	0.00	29.719 
20:10	65.6	65.6	65.6	96	64.4	0	0	---	0.00	29.719 
20:15	65.5	65.5	65.5	96	64.3	0	0	---	0.00	29.720 
20:20	65.5	65.5	65.5	96	64.3	0	0	---	0.00	29.720 
20:25	65.3	65.3	65.3	96	64.1	0	0	---	0.00	29.720 
20:30	65.3	65.3	65.3	96	64.1	0	0	---	0.00	29.719 
20:35	65.2	65.2	65.2	96	64.0	0	0	---	0.00	29.719 
20:40	65.2	65.2	65.2	96	64.0	0	0	---	0.00	29.719 
20:45	65.2	65.2	65.2	96	64.0	0	0	---	0.00	29.720 
20:50	65.2	65.2	65.2	96	64.0	0	0	---	0.00	29.720 
20:55	65.0	65.0	65.0	96	63.8	0	0	---	0.00	29.720 
21:00	65.0	65.0	65.0	96	63.8	0	0	---	0.00	29.721 
21:05	64.8	64.8	64.8	96	63.6	0	0	---	0.00	29.721 
21:10	64.8	64.8	64.8	96	63.6	0	0	---	0.00	29.721 
21:15	64.8	64.8	64.8	96	63.6	0	0	---	0.00	29.714 
21:20	64.8	64.8	64.8	96	63.6	0	0	---	0.00	29.714 
21:25	64.7	64.7	64.7	96	63.5	0	0	---	0.00	29.714 
21:30	64.7	64.7	64.7	96	63.5	0	0	---	0.00	29.715 
21:35	64.5	64.5	64.5	96	63.3	0	0	---	0.00	29.715 
21:40	64.5	64.5	64.5	96	63.3	0	0	---	0.00	29.715 
21:45	64.3	64.3	64.3	96	63.1	0	0	---	0.00	29.707 
21:50	64.3	64.3	64.3	96	63.1	0	0	---	0.00	29.707 
21:55	64.3	64.3	64.3	96	63.1	0	0	---	0.00	29.707 
22:00	64.2	64.2	64.2	96	63.0	0	0	---	0.00	29.707 
22:05	64.2	64.2	64.2	96	63.0	0	0	---	0.00	29.707 
22:10	64.0	64.0	64.0	96	62.8	0	0	---	0.00	29.707 
22:15	64.0	64.0	64.0	96	62.8	0	0	---	0.00	29.704 
22:20	63.9	63.9	63.9	96	62.7	0	0	---	0.00	29.704 
22:25	63.9	63.9	63.9	96	62.7	0	0	---	0.00	29.704 
22:30	63.9	63.9	63.9	96	62.7	0	0	---	0.00	29.697 
22:35	63.9	63.9	63.9	96	62.7	0	0	---	0.00	29.697 
22:40	63.7	63.7	63.7	96	62.5	0	0	---	0.00	29.697 
22:45	63.7	63.7	63.7	96	62.5	0	0	---	0.00	29.697 
22:50	63.5	63.5	63.5	96	62.3	0	0	---	0.00	29.697 
22:55	63.5	63.5	63.5	96	62.3	0	0	---	0.00	29.697 
23:00	63.7	63.7	63.7	96	62.5	0	0	---	0.00	29.689 
23:05	63.7	63.7	63.7	96	62.5	0	0	---	0.00	29.689 
23:10	63.7	63.7	63.7	96	62.5	0	0	---	0.00	29.689 
23:15	63.7	63.7	63.7	96	62.5	0	1	292	0.00	29.687 
23:20	63.7	63.7	63.7	96	62.5	0	1	292	0.00	29.687 
23:25	63.9	63.9	63.9	97	63.0	0	0	---	0.00	29.687 
23:30	63.9	63.9	63.9	96	62.7	0	0	---	0.00	29.682 
23:35	63.9	63.9	63.9	96	62.7	0	1	292	0.00	29.682 
23:40	63.9	63.9	63.9	96	62.7	0	0	---	0.00	29.682 
23:45	63.9	63.9	63.9	96	62.7	0	0	---	0.00	29.676 
23:50	63.9	63.9	63.9	97	63.0	0	0	---	0.00	29.676 
23:55	63.9	63.9	63.9	97	63.0	0	0	---	0.00	29.676 

CoCoRaHS
IN-AL-39
A2 Web Hosting
Creative Commons License
GoDaddy
search engine by freefind advanced

loaded 2018-11-17 06:04:24 • last modified 2010-11-18 10:43:29
Privacy PolicyDisclaimer
• wx.awcolley.com is powered by PmWiki v.2002016 •
• all content (unless otherwise noted) © 2018 A W Colley